createdAt,value
2023-02-16T00:01:40.332Z,6.70
2023-02-16T00:04:43.351Z,6.70
2023-02-16T00:07:46.457Z,6.70
2023-02-16T00:11:08.950Z,6.70
2023-02-16T00:14:13.789Z,6.70
2023-02-16T00:17:16.707Z,6.70
2023-02-16T00:20:20.210Z,6.80
2023-02-16T00:23:23.247Z,6.80
2023-02-16T00:26:33.806Z,6.80
2023-02-16T00:29:38.700Z,6.80
2023-02-16T00:32:41.709Z,7.50
2023-02-16T00:35:45.662Z,6.80
2023-02-16T00:38:48.628Z,6.80
2023-02-16T00:41:53.992Z,6.80
2023-02-16T00:44:59.046Z,5.70
2023-02-16T00:48:02.203Z,5.60
2023-02-16T00:51:20.289Z,6.90
2023-02-16T00:54:29.382Z,4.90
2023-02-16T00:57:39.730Z,7.00
2023-02-16T01:00:47.849Z,7.00
2023-02-16T01:03:51.053Z,7.00
2023-02-16T01:07:11.826Z,7.10
2023-02-16T01:10:32.512Z,7.80
2023-02-16T01:13:43.587Z,9.40
2023-02-16T01:16:46.789Z,7.10
2023-02-16T01:19:49.916Z,7.10
2023-02-16T01:22:53.217Z,7.10
2023-02-16T01:25:58.220Z,7.20
2023-02-16T01:29:02.596Z,7.20
2023-02-16T01:32:05.955Z,7.10
2023-02-16T01:35:11.119Z,9.00
2023-02-16T01:38:19.724Z,8.70
2023-02-16T01:41:45.299Z,7.20
2023-02-16T01:44:53.769Z,7.20
2023-02-16T01:48:04.399Z,7.20
2023-02-16T01:51:18.270Z,7.30
2023-02-16T01:54:36.182Z,7.30
2023-02-16T01:57:46.079Z,7.40
2023-02-16T02:01:46.791Z,7.30
2023-02-16T02:05:13.609Z,8.10
2023-02-16T02:08:28.642Z,7.30
2023-02-16T02:11:40.181Z,7.20
2023-02-16T02:14:43.580Z,7.30
2023-02-16T02:17:46.706Z,7.30
2023-02-16T02:21:34.695Z,7.20
2023-02-16T02:25:24.932Z,7.30
2023-02-16T02:28:38.531Z,7.30
2023-02-16T02:31:56.970Z,7.30
2023-02-16T02:35:23.625Z,7.50
2023-02-16T02:38:39.633Z,7.30
2023-02-16T02:42:05.998Z,7.30
2023-02-16T02:45:18.495Z,7.30
2023-02-16T02:48:21.886Z,7.30
2023-02-16T02:51:31.239Z,7.00
2023-02-16T02:54:57.332Z,7.30
2023-02-16T02:58:18.943Z,7.30
2023-02-16T03:01:25.258Z,7.40
2023-02-16T03:04:33.256Z,7.30
2023-02-16T03:07:48.278Z,7.30
2023-02-16T03:11:15.305Z,7.30
2023-02-16T03:14:27.616Z,7.30
2023-02-16T03:17:55.901Z,9.20
2023-02-16T03:21:17.547Z,7.40
2023-02-16T03:24:45.268Z,7.90
2023-02-16T03:28:05.854Z,7.40
2023-02-16T03:31:13.511Z,7.40
2023-02-16T03:34:21.494Z,7.40
2023-02-16T03:37:25.243Z,7.40
2023-02-16T03:40:32.605Z,7.40
2023-02-16T03:43:35.816Z,5.70
2023-02-16T03:46:38.865Z,7.50
2023-02-16T03:49:43.890Z,7.50
2023-02-16T03:52:46.962Z,7.50
2023-02-16T03:55:50.181Z,7.50
2023-02-16T03:58:53.247Z,8.90
2023-02-16T04:02:03.174Z,8.00
2023-02-16T04:05:09.209Z,7.50
2023-02-16T04:08:13.768Z,7.50
2023-02-16T04:11:34.721Z,7.50
2023-02-16T04:14:37.716Z,7.50
2023-02-16T04:17:41.737Z,7.50
2023-02-16T04:20:46.623Z,5.80
2023-02-16T04:23:49.676Z,7.60
2023-02-16T04:26:52.900Z,7.60
2023-02-16T04:29:56.003Z,7.60
2023-02-16T04:32:59.801Z,7.60
2023-02-16T04:36:04.335Z,7.60
2023-02-16T04:39:07.520Z,7.60
2023-02-16T04:42:11.278Z,7.60
2023-02-16T04:45:15.776Z,8.70
2023-02-16T04:48:19.014Z,7.60
2023-02-16T04:51:24.236Z,7.60
2023-02-16T04:54:30.151Z,8.40
2023-02-16T04:57:33.432Z,7.70
2023-02-16T05:00:37.568Z,7.50
2023-02-16T05:03:40.661Z,7.60
2023-02-16T05:06:45.058Z,7.60
2023-02-16T05:09:48.144Z,7.60
2023-02-16T05:13:09.035Z,8.10
2023-02-16T05:16:13.219Z,7.60
2023-02-16T05:19:18.659Z,7.60
2023-02-16T05:22:23.500Z,7.50
2023-02-16T05:25:26.577Z,7.60
2023-02-16T05:28:29.831Z,7.50
2023-02-16T05:31:33.432Z,7.50
2023-02-16T05:34:36.648Z,7.50
2023-02-16T05:37:42.721Z,7.50
2023-02-16T05:40:45.897Z,7.50
2023-02-16T05:43:50.943Z,9.00
2023-02-16T05:46:54.028Z,5.80
2023-02-16T05:49:57.105Z,7.40
2023-02-16T05:53:01.524Z,7.30
2023-02-16T05:56:07.379Z,7.40
2023-02-16T05:59:18.757Z,7.40
2023-02-16T06:02:21.884Z,7.40
2023-02-16T06:05:24.914Z,7.50
2023-02-16T06:08:30.669Z,7.50
2023-02-16T06:11:36.720Z,9.80
2023-02-16T06:14:39.950Z,9.70
2023-02-16T06:17:44.513Z,7.40
2023-02-16T06:20:47.815Z,8.10
2023-02-16T06:23:52.498Z,8.30
2023-02-16T06:26:56.477Z,9.10
2023-02-16T06:29:59.582Z,6.30
2023-02-16T06:33:03.019Z,7.40
2023-02-16T06:36:08.081Z,7.40
2023-02-16T06:39:12.522Z,7.50
2023-02-16T06:42:15.618Z,7.50
2023-02-16T06:45:19.118Z,8.10
2023-02-16T06:48:22.197Z,7.50
2023-02-16T06:51:25.800Z,7.30
2023-02-16T06:54:30.334Z,6.30
2023-02-16T06:57:33.813Z,7.60
2023-02-16T07:00:36.932Z,7.60
2023-02-16T07:03:40.322Z,8.90
2023-02-16T07:06:43.865Z,6.80
2023-02-16T07:09:48.206Z,7.80
2023-02-16T07:12:51.272Z,7.40
2023-02-16T07:15:54.569Z,7.80
2023-02-16T07:18:57.986Z,8.70
2023-02-16T07:22:06.075Z,8.10
2023-02-16T07:25:10.965Z,7.90
2023-02-16T07:28:14.830Z,7.90
2023-02-16T07:31:18.538Z,7.80
2023-02-16T07:34:22.155Z,8.00
2023-02-16T07:37:25.377Z,8.00
2023-02-16T07:40:29.867Z,8.10
2023-02-16T07:43:34.686Z,6.80
2023-02-16T07:46:38.167Z,8.20
2023-02-16T07:49:41.914Z,8.20
2023-02-16T07:52:47.404Z,8.20
2023-02-16T07:55:52.046Z,8.20
2023-02-16T07:58:57.170Z,8.30
2023-02-16T08:02:00.383Z,8.40
2023-02-16T08:05:04.278Z,8.40
2023-02-16T08:08:07.729Z,8.50
2023-02-16T08:11:15.233Z,8.50
2023-02-16T08:14:23.376Z,8.60
2023-02-16T08:17:26.583Z,8.60
2023-02-16T08:20:51.151Z,8.70
2023-02-16T08:23:59.808Z,8.70
2023-02-16T08:27:07.319Z,8.80
2023-02-16T08:30:13.773Z,8.80
2023-02-16T08:33:16.777Z,8.80
2023-02-16T08:36:20.959Z,8.80
2023-02-16T08:39:25.894Z,8.80
2023-02-16T08:42:30.068Z,8.90
2023-02-16T08:45:33.211Z,8.90
2023-02-16T08:48:36.384Z,10.50
2023-02-16T08:51:46.108Z,8.90
2023-02-16T08:54:49.601Z,10.70
2023-02-16T08:57:53.978Z,9.00
2023-02-16T09:00:57.227Z,9.00
2023-02-16T09:04:00.288Z,9.00
2023-02-16T09:07:05.275Z,9.00
2023-02-16T09:10:09.198Z,9.30
2023-02-16T09:13:16.030Z,9.10
2023-02-16T09:16:22.451Z,9.10
2023-02-16T09:19:26.000Z,8.40
2023-02-16T09:22:29.021Z,9.20
2023-02-16T09:25:32.158Z,9.20
2023-02-16T09:28:38.379Z,9.30
2023-02-16T09:31:44.300Z,10.70
2023-02-16T09:34:50.043Z,9.30
2023-02-16T09:37:53.919Z,9.40
2023-02-16T09:40:59.503Z,9.40
2023-02-16T09:44:16.398Z,9.40
2023-02-16T09:47:29.280Z,8.00
2023-02-16T09:50:53.397Z,9.40
2023-02-16T09:54:02.113Z,9.40
2023-02-16T09:57:18.180Z,9.50
2023-02-16T10:00:35.643Z,9.50
2023-02-16T10:03:55.803Z,9.50
2023-02-16T10:07:16.772Z,10.80
2023-02-16T10:10:26.208Z,9.50
2023-02-16T10:13:40.901Z,9.60
2023-02-16T10:16:55.284Z,9.70
2023-02-16T10:20:05.241Z,9.70
2023-02-16T10:23:20.265Z,9.80
2023-02-16T10:26:33.203Z,9.80
2023-02-16T10:29:36.440Z,9.80
2023-02-16T10:32:55.954Z,9.90
2023-02-16T10:36:04.635Z,10.00
2023-02-16T10:39:20.580Z,10.00
2023-02-16T10:42:35.066Z,10.20
2023-02-16T10:45:49.523Z,8.70
2023-02-16T10:48:57.702Z,10.30
2023-02-16T10:52:04.562Z,10.40
2023-02-16T10:55:08.095Z,10.50
2023-02-16T10:58:22.463Z,10.60
2023-02-16T11:01:38.079Z,10.60
2023-02-16T11:04:46.220Z,10.70
2023-02-16T11:07:56.653Z,10.80
2023-02-16T11:11:10.315Z,10.80
2023-02-16T11:14:24.492Z,10.90
2023-02-16T11:17:28.196Z,10.90
2023-02-16T11:20:35.557Z,12.50
2023-02-16T11:23:41.170Z,11.00
2023-02-16T11:26:56.893Z,11.00
2023-02-16T11:30:22.502Z,11.00
2023-02-16T11:33:29.468Z,10.00
2023-02-16T11:36:40.085Z,11.10
2023-02-16T11:39:52.379Z,11.10
2023-02-16T11:42:59.015Z,11.10
2023-02-16T11:46:08.906Z,11.00
2023-02-16T11:49:33.244Z,11.00
2023-02-16T11:52:38.039Z,11.00
2023-02-16T11:55:44.971Z,11.00
2023-02-16T11:59:07.255Z,11.00
2023-02-16T12:02:48.577Z,11.00
2023-02-16T12:06:12.679Z,10.90
2023-02-16T12:09:35.549Z,10.90
2023-02-16T12:12:52.006Z,11.30
2023-02-16T12:16:08.573Z,12.30
2023-02-16T12:19:38.286Z,10.80
2023-02-16T12:22:49.204Z,10.90
2023-02-16T12:26:19.539Z,10.90
2023-02-16T12:29:44.960Z,10.90
2023-02-16T12:33:08.313Z,11.20
2023-02-16T12:36:41.957Z,10.90
2023-02-16T12:40:03.867Z,10.90
2023-02-16T12:43:32.609Z,10.90
2023-02-16T12:46:42.829Z,10.90
2023-02-16T12:49:55.777Z,10.90
2023-02-16T12:53:07.199Z,10.80
2023-02-16T12:56:20.124Z,10.80
2023-02-16T12:59:33.849Z,10.80
2023-02-16T13:02:42.473Z,10.80
2023-02-16T13:05:52.120Z,10.80
2023-02-16T13:09:06.948Z,12.40
2023-02-16T13:12:25.205Z,10.70
2023-02-16T13:15:38.470Z,10.70
2023-02-16T13:18:45.707Z,10.60
2023-02-16T13:22:28.142Z,10.60
2023-02-16T13:26:00.637Z,10.50
2023-02-16T13:29:37.417Z,10.60
2023-02-16T13:33:15.140Z,10.60
2023-02-16T13:36:50.418Z,9.70
2023-02-16T13:40:23.479Z,10.60
2023-02-16T13:43:34.354Z,10.60
2023-02-16T13:46:44.057Z,10.60
2023-02-16T13:49:50.355Z,12.30
2023-02-16T13:52:55.759Z,10.60
2023-02-16T13:56:23.269Z,10.50
2023-02-16T14:00:02.061Z,12.20
2023-02-16T14:03:15.291Z,10.90
2023-02-16T14:06:37.068Z,10.50
2023-02-16T14:09:48.892Z,10.40
2023-02-16T14:12:52.295Z,10.40
2023-02-16T14:15:58.767Z,10.30
2023-02-16T14:19:17.002Z,10.60
2023-02-16T14:22:26.470Z,10.30
2023-02-16T14:25:40.210Z,10.20
2023-02-16T14:29:17.925Z,10.20
2023-02-16T14:32:28.288Z,10.20
2023-02-16T14:35:35.551Z,10.20
2023-02-16T14:38:47.867Z,10.20
2023-02-16T14:41:51.711Z,10.20
2023-02-16T14:45:19.701Z,10.20
2023-02-16T14:48:56.745Z,10.20
2023-02-16T14:52:54.210Z,10.20
2023-02-16T14:56:25.445Z,10.20
2023-02-16T14:59:35.901Z,10.20
2023-02-16T15:02:43.158Z,10.20
2023-02-16T15:05:57.178Z,10.20
2023-02-16T15:09:03.165Z,10.20
2023-02-16T15:12:23.517Z,10.20
2023-02-16T15:15:40.449Z,10.20
2023-02-16T15:18:49.207Z,11.80
2023-02-16T15:22:18.184Z,10.20
2023-02-16T15:25:29.242Z,10.20
2023-02-16T15:28:37.605Z,10.20
2023-02-16T15:31:42.529Z,10.20
2023-02-16T15:34:46.995Z,10.20
2023-02-16T15:38:00.853Z,10.20
2023-02-16T15:41:08.146Z,11.20
2023-02-16T15:44:31.218Z,10.10
2023-02-16T15:47:34.190Z,10.10
2023-02-16T15:50:38.421Z,10.10
2023-02-16T15:53:50.017Z,10.10
2023-02-16T15:56:55.597Z,10.10
2023-02-16T16:00:02.942Z,11.70
2023-02-16T16:03:14.935Z,10.20
2023-02-16T16:06:18.552Z,10.10
2023-02-16T16:09:28.307Z,10.00
2023-02-16T16:12:32.160Z,10.10
2023-02-16T16:15:43.693Z,10.20
2023-02-16T16:18:50.214Z,10.20
2023-02-16T16:21:55.737Z,10.20
2023-02-16T16:24:58.918Z,10.20
2023-02-16T16:28:02.801Z,10.30
2023-02-16T16:31:15.302Z,11.20
2023-02-16T16:34:38.205Z,10.20
2023-02-16T16:37:41.398Z,10.20
2023-02-16T16:40:51.644Z,10.20
2023-02-16T16:43:57.805Z,10.20
2023-02-16T16:47:15.223Z,10.20
2023-02-16T16:50:33.702Z,8.70
2023-02-16T16:53:53.781Z,10.20
2023-02-16T16:56:57.372Z,10.20
2023-02-16T17:00:00.393Z,10.20
2023-02-16T17:03:07.777Z,10.20
2023-02-16T17:06:11.020Z,10.10
2023-02-16T17:09:15.926Z,10.10
2023-02-16T17:12:20.539Z,10.10
2023-02-16T17:15:33.551Z,10.10
2023-02-16T17:18:38.001Z,10.20
2023-02-16T17:21:44.988Z,10.00
2023-02-16T17:24:48.719Z,9.60
2023-02-16T17:27:51.858Z,9.90
2023-02-16T17:30:54.921Z,9.80
2023-02-16T17:33:59.470Z,9.80
2023-02-16T17:37:07.340Z,9.70
2023-02-16T17:40:17.302Z,11.10
2023-02-16T17:43:22.703Z,9.60
2023-02-16T17:46:26.804Z,9.60
2023-02-16T17:49:31.054Z,9.60
2023-02-16T17:52:34.099Z,9.70
2023-02-16T17:55:37.733Z,9.60
2023-02-16T17:58:40.897Z,9.60
2023-02-16T18:01:44.540Z,9.60
2023-02-16T18:04:49.025Z,9.60
2023-02-16T18:07:52.280Z,9.70
2023-02-16T18:11:01.982Z,9.70
2023-02-16T18:14:05.128Z,9.70
2023-02-16T18:17:09.370Z,9.70
2023-02-16T18:20:17.086Z,9.70
2023-02-16T18:23:20.117Z,9.70
2023-02-16T18:26:23.739Z,10.80
2023-02-16T18:29:27.083Z,11.30
2023-02-16T18:32:30.124Z,10.10
2023-02-16T18:35:34.525Z,9.70
2023-02-16T18:38:37.770Z,9.70
2023-02-16T18:41:40.810Z,9.70
2023-02-16T18:44:44.917Z,9.70
2023-02-16T18:47:47.778Z,9.70
2023-02-16T18:50:52.150Z,9.60
2023-02-16T18:53:55.248Z,8.70
2023-02-16T18:56:58.496Z,9.80
2023-02-16T19:00:01.608Z,9.80
2023-02-16T19:03:05.261Z,9.90
2023-02-16T19:06:10.346Z,9.80
2023-02-16T19:09:13.552Z,9.80
2023-02-16T19:12:16.674Z,8.40
2023-02-16T19:15:19.887Z,9.80
2023-02-16T19:18:23.815Z,8.50
2023-02-16T19:21:28.337Z,9.80
2023-02-16T19:24:36.872Z,9.70
2023-02-16T19:27:39.896Z,9.70
2023-02-16T19:30:43.000Z,9.70
2023-02-16T19:33:46.122Z,9.70
2023-02-16T19:36:50.507Z,9.70
2023-02-16T19:39:54.122Z,9.70
2023-02-16T19:42:57.153Z,9.60
2023-02-16T19:46:00.255Z,9.60
2023-02-16T19:49:04.056Z,9.70
2023-02-16T19:52:08.482Z,9.60
2023-02-16T19:55:11.800Z,9.50
2023-02-16T19:58:14.982Z,8.60
2023-02-16T20:01:21.710Z,9.50
2023-02-16T20:04:24.889Z,9.50
2023-02-16T20:07:29.359Z,7.80
2023-02-16T20:10:33.354Z,9.30
2023-02-16T20:13:36.773Z,9.50
2023-02-16T20:16:40.492Z,9.50
2023-02-16T20:19:43.534Z,9.50
2023-02-16T20:22:47.956Z,9.50
2023-02-16T20:25:50.991Z,9.40
2023-02-16T20:28:54.572Z,9.40
2023-02-16T20:31:59.641Z,9.40
2023-02-16T20:35:06.645Z,10.60
2023-02-16T20:38:11.145Z,9.40
2023-02-16T20:41:14.461Z,10.60
2023-02-16T20:44:18.188Z,9.40
2023-02-16T20:47:21.243Z,7.70
2023-02-16T20:50:24.459Z,9.40
2023-02-16T20:53:29.796Z,9.40
2023-02-16T20:56:32.915Z,9.40
2023-02-16T20:59:36.140Z,9.40
2023-02-16T21:02:39.387Z,10.30
2023-02-16T21:05:42.517Z,9.40
2023-02-16T21:08:47.704Z,9.40
2023-02-16T21:11:50.665Z,8.70
2023-02-16T21:14:53.841Z,9.40
2023-02-16T21:17:56.936Z,9.40
2023-02-16T21:21:01.226Z,9.40
2023-02-16T21:24:06.139Z,9.50
2023-02-16T21:27:09.625Z,9.50
2023-02-16T21:30:15.522Z,11.10
2023-02-16T21:33:19.263Z,9.50
2023-02-16T21:36:26.342Z,9.60
2023-02-16T21:39:44.764Z,9.60
2023-02-16T21:42:48.043Z,9.60
2023-02-16T21:46:00.440Z,11.20
2023-02-16T21:49:04.689Z,9.70
2023-02-16T21:52:07.569Z,9.70
2023-02-16T21:55:29.549Z,9.70
2023-02-16T21:58:35.069Z,9.70
2023-02-16T22:01:42.506Z,9.70
2023-02-16T22:04:45.852Z,9.70
2023-02-16T22:07:48.929Z,9.80
2023-02-16T22:10:54.122Z,11.60
2023-02-16T22:14:00.168Z,9.80
2023-02-16T22:17:04.346Z,10.60
2023-02-16T22:20:08.843Z,9.80
2023-02-16T22:23:12.251Z,7.90
2023-02-16T22:26:25.452Z,9.70
2023-02-16T22:29:28.518Z,8.40
2023-02-16T22:32:31.659Z,9.70
2023-02-16T22:35:35.082Z,9.70
2023-02-16T22:38:38.250Z,9.70
2023-02-16T22:41:42.767Z,9.70
2023-02-16T22:44:46.013Z,9.70
2023-02-16T22:47:49.201Z,9.70
2023-02-16T22:50:59.337Z,9.70
2023-02-16T22:54:03.432Z,9.60
2023-02-16T22:57:07.844Z,9.60
2023-02-16T23:00:17.301Z,9.60
2023-02-16T23:03:20.633Z,9.60
2023-02-16T23:06:26.724Z,9.60
2023-02-16T23:09:29.837Z,10.10
2023-02-16T23:12:34.260Z,9.50
2023-02-16T23:15:37.802Z,10.80
2023-02-16T23:18:41.419Z,9.50
2023-02-16T23:21:44.660Z,9.50
2023-02-16T23:25:08.684Z,9.50
2023-02-16T23:28:13.928Z,9.50
2023-02-16T23:31:17.041Z,9.50
2023-02-16T23:34:21.736Z,9.40
2023-02-16T23:37:24.727Z,11.20
2023-02-16T23:40:27.798Z,9.40
2023-02-16T23:43:32.383Z,9.50
2023-02-16T23:46:35.522Z,9.50
2023-02-16T23:49:38.770Z,9.50
2023-02-16T23:52:41.826Z,9.60
2023-02-16T23:55:44.984Z,9.60
2023-02-16T23:58:51.160Z,9.60
